createdAt,value
2019-01-13T00:41:57.121Z,14.00
2019-01-13T00:45:04.268Z,16.33
2019-01-13T00:48:12.680Z,14.77
2019-01-13T00:51:27.991Z,15.53
2019-01-13T00:54:23.371Z,11.77
2019-01-13T03:41:35.978Z,7.83
2019-01-13T04:25:32.052Z,5.80
2019-01-13T04:44:17.632Z,4.97
2019-01-13T05:00:25.764Z,5.20
2019-01-13T05:20:43.557Z,6.27
2019-01-13T07:07:17.528Z,15.30
2019-01-13T07:10:23.431Z,14.57
2019-01-13T07:13:14.915Z,14.13
2019-01-13T07:16:19.345Z,15.33
2019-01-13T07:19:08.585Z,14.87
2019-01-13T07:22:14.884Z,14.27
2019-01-13T07:25:04.003Z,12.10
2019-01-13T07:28:08.680Z,14.47
2019-01-13T07:30:56.394Z,13.70
2019-01-13T07:34:04.780Z,13.60
2019-01-13T07:36:52.632Z,14.37
2019-01-13T07:39:59.018Z,12.70
2019-01-13T07:42:47.139Z,11.20
2019-01-13T07:45:55.017Z,12.97
2019-01-13T07:51:50.852Z,8.97
2019-01-13T07:54:55.600Z,9.80
2019-01-13T07:57:43.831Z,8.70
2019-01-13T08:00:48.450Z,9.00
2019-01-13T08:03:36.444Z,10.07
2019-01-13T08:06:44.112Z,8.57
2019-01-13T08:09:32.020Z,8.30
2019-01-13T08:12:39.993Z,8.90
2019-01-13T08:15:27.906Z,9.63
2019-01-13T08:18:33.892Z,9.73
2019-01-13T08:21:22.976Z,7.63
2019-01-13T08:24:29.098Z,7.30
2019-01-13T08:27:23.358Z,6.27
2019-01-13T08:30:30.580Z,6.20
2019-01-13T08:33:20.077Z,8.03
2019-01-13T08:36:25.787Z,7.13
2019-01-13T08:39:14.061Z,6.90
2019-01-13T08:42:19.321Z,6.10
2019-01-13T08:45:10.514Z,7.33
2019-01-13T08:48:15.950Z,7.70
2019-01-13T08:51:05.106Z,6.37
2019-01-13T08:54:09.522Z,7.43
2019-01-13T08:56:57.627Z,6.40
2019-01-13T09:00:02.334Z,5.47
2019-01-13T09:02:50.597Z,5.33
2019-01-13T09:05:55.035Z,6.90
2019-01-13T09:08:44.536Z,6.20
2019-01-13T09:11:49.620Z,6.27
2019-01-13T09:14:38.891Z,6.87
2019-01-13T09:17:44.031Z,5.90
2019-01-13T09:20:51.860Z,6.47
2019-01-13T09:23:40.232Z,6.13
2019-01-13T09:26:50.777Z,6.33
2019-01-13T09:29:34.543Z,6.43
2019-01-13T09:32:39.711Z,5.10
2019-01-13T09:35:28.151Z,6.43
2019-01-13T09:38:32.954Z,6.67
2019-01-13T09:41:20.691Z,6.43
2019-01-13T09:44:28.327Z,7.00
2019-01-13T09:47:16.039Z,8.47
2019-01-13T09:50:20.384Z,7.00
2019-01-13T09:53:11.227Z,7.60
2019-01-13T09:56:15.901Z,9.07
2019-01-13T09:59:03.937Z,7.70
2019-01-13T10:02:08.520Z,8.17
2019-01-13T10:04:56.638Z,6.93
2019-01-13T10:08:01.468Z,7.47
2019-01-13T10:10:49.337Z,7.43
2019-01-13T10:13:54.146Z,5.87
2019-01-13T10:16:42.179Z,7.17
2019-01-13T10:19:46.830Z,7.93
2019-01-13T10:22:34.915Z,6.97
2019-01-13T10:25:39.688Z,7.80
2019-01-13T10:28:27.532Z,7.63
2019-01-13T10:31:32.198Z,7.20
2019-01-13T10:34:37.073Z,7.83
2019-01-13T10:37:24.936Z,7.67
2019-01-13T10:40:29.798Z,5.97
2019-01-13T10:43:17.860Z,6.23
2019-01-13T10:46:22.627Z,6.53
2019-01-13T10:49:10.447Z,7.17
2019-01-13T10:52:15.451Z,7.10
2019-01-13T10:55:03.555Z,6.23
2019-01-13T10:58:08.270Z,7.07
2019-01-13T11:00:56.031Z,6.47
2019-01-13T11:04:00.692Z,6.37
2019-01-13T11:06:48.717Z,5.83
2019-01-13T11:09:53.392Z,5.67
2019-01-13T11:12:41.427Z,5.33
2019-01-13T11:15:45.918Z,6.27
2019-01-13T11:18:33.783Z,6.60
2019-01-13T11:21:38.495Z,6.00
2019-01-13T11:24:26.283Z,6.03
2019-01-13T11:27:48.759Z,7.00
2019-01-13T11:30:36.946Z,6.03
2019-01-13T11:33:41.739Z,6.37
2019-01-13T11:36:29.955Z,5.77
2019-01-13T11:39:34.707Z,5.93
2019-01-13T11:42:22.690Z,6.40
2019-01-13T11:45:27.632Z,8.03
2019-01-13T11:48:15.515Z,7.20
2019-01-13T11:51:20.292Z,7.13
2019-01-13T11:54:08.138Z,8.23
2019-01-13T11:57:12.567Z,7.57
2019-01-13T12:00:17.480Z,7.30
2019-01-13T12:03:06.898Z,6.87
2019-01-13T12:06:11.806Z,6.30
2019-01-13T12:09:00.039Z,6.27
2019-01-13T12:12:07.230Z,4.87
2019-01-13T12:14:54.914Z,6.23
2019-01-13T12:17:59.322Z,5.30
2019-01-13T12:20:47.435Z,5.37
2019-01-13T12:23:52.108Z,5.17
2019-01-13T12:26:40.213Z,5.27
2019-01-13T12:29:44.913Z,4.97
2019-01-13T12:32:32.941Z,4.83
2019-01-13T12:35:37.800Z,5.17
2019-01-13T12:38:25.539Z,5.50
2019-01-13T12:41:30.263Z,5.30
2019-01-13T12:44:17.976Z,5.87
2019-01-13T12:50:23.663Z,5.87
2019-01-13T12:53:28.207Z,5.20
2019-01-13T12:56:16.322Z,4.97
2019-01-13T12:59:21.313Z,4.77
2019-01-13T13:02:09.169Z,4.77
2019-01-13T13:05:16.802Z,5.30
2019-01-13T13:08:04.999Z,5.13
2019-01-13T13:11:10.018Z,4.37
2019-01-13T13:13:58.078Z,4.57
2019-01-13T13:17:02.727Z,4.60
2019-01-13T13:19:50.902Z,4.37
2019-01-13T13:22:55.819Z,3.83
2019-01-13T13:25:43.604Z,4.83
2019-01-13T13:28:48.445Z,4.30
2019-01-13T13:31:36.311Z,5.10
2019-01-13T13:34:41.249Z,4.13
2019-01-13T13:37:29.344Z,4.50
2019-01-13T13:40:34.116Z,4.27
2019-01-13T13:43:21.913Z,4.50
2019-01-13T13:46:26.440Z,4.37
2019-01-13T13:49:17.354Z,4.83
2019-01-13T13:52:22.029Z,3.90
2019-01-13T13:55:09.987Z,3.20
2019-01-13T13:58:14.466Z,2.93
2019-01-13T14:01:02.410Z,2.93
2019-01-13T14:04:07.345Z,2.83
2019-01-13T14:06:55.617Z,3.70
2019-01-13T14:10:00.103Z,4.57
2019-01-13T14:12:52.130Z,4.47
2019-01-13T14:15:56.814Z,5.30
2019-01-13T14:18:47.787Z,4.47
2019-01-13T14:21:55.818Z,3.90
2019-01-13T14:24:44.205Z,5.23
2019-01-13T14:27:49.193Z,4.67
2019-01-13T14:30:54.255Z,6.00
2019-01-13T14:33:41.926Z,7.00
2019-01-13T14:36:46.588Z,7.83
2019-01-13T14:39:34.737Z,8.07
2019-01-13T14:42:40.881Z,7.37
2019-01-13T14:45:30.180Z,6.57
2019-01-13T14:48:36.777Z,5.47
2019-01-13T14:51:24.706Z,5.70
2019-01-13T14:54:29.205Z,5.67
2019-01-13T14:57:17.038Z,6.17
2019-01-13T15:00:23.401Z,7.37
2019-01-13T15:03:11.295Z,7.93
2019-01-13T15:06:16.187Z,7.50
2019-01-13T15:09:07.083Z,9.23
2019-01-13T15:12:11.627Z,8.27
2019-01-13T15:14:59.458Z,8.53
2019-01-13T15:18:04.446Z,7.23
2019-01-13T15:20:52.755Z,8.80
2019-01-13T15:23:57.276Z,7.40
2019-01-13T15:26:47.594Z,7.73
2019-01-13T15:29:52.236Z,8.00
2019-01-13T15:35:52.582Z,7.93
2019-01-13T15:38:57.001Z,7.63
2019-01-13T15:41:45.997Z,17.57
2019-01-13T15:44:50.689Z,25.63
2019-01-13T15:47:41.966Z,35.97
2019-01-13T15:50:46.824Z,27.83
2019-01-13T15:53:37.126Z,29.47
2019-01-13T15:56:41.941Z,27.17
2019-01-13T15:59:30.042Z,25.13
2019-01-13T16:02:34.450Z,28.43
2019-01-13T16:05:22.291Z,40.80
2019-01-13T16:08:27.248Z,25.70
2019-01-13T16:11:16.644Z,23.20
2019-01-13T16:14:21.392Z,23.17
2019-01-13T16:17:09.569Z,18.60
2019-01-13T16:20:14.552Z,18.90
2019-01-13T16:26:04.920Z,18.43
2019-01-13T16:29:09.826Z,17.67
2019-01-13T16:31:58.104Z,19.17
2019-01-13T16:35:03.909Z,18.23
2019-01-13T16:38:10.221Z,21.43
2019-01-13T16:40:59.455Z,22.33
2019-01-13T16:44:04.033Z,21.97
2019-01-13T16:46:52.061Z,23.53
2019-01-13T16:49:58.157Z,22.83
2019-01-13T16:52:46.029Z,19.47
2019-01-13T16:55:50.636Z,18.47
2019-01-13T16:58:39.602Z,16.10
2019-01-13T17:01:44.304Z,14.00
2019-01-13T17:04:32.216Z,12.57
2019-01-13T17:07:37.820Z,13.00
2019-01-13T17:10:26.121Z,13.00
2019-01-13T17:13:37.012Z,12.03
2019-01-13T17:16:25.910Z,12.57
2019-01-13T17:19:31.050Z,15.00
2019-01-13T17:22:22.260Z,14.60
2019-01-13T17:25:28.332Z,15.43
2019-01-13T17:28:16.541Z,14.30
2019-01-13T17:31:21.827Z,15.33
2019-01-13T17:37:15.151Z,14.67
2019-01-13T17:40:21.244Z,16.20
2019-01-13T17:43:10.610Z,17.90
2019-01-13T17:46:18.210Z,14.03
2019-01-13T17:49:06.461Z,16.23
2019-01-13T17:52:12.754Z,23.77
2019-01-13T17:55:01.071Z,27.10
2019-01-13T17:58:11.698Z,26.83
2019-01-13T18:01:02.423Z,19.70
2019-01-13T18:04:06.809Z,18.63
2019-01-13T18:06:55.930Z,18.70
2019-01-13T18:10:00.902Z,20.13
2019-01-13T18:13:05.762Z,16.97
2019-01-13T18:15:53.983Z,16.23
2019-01-13T18:18:58.841Z,19.33
2019-01-13T18:21:48.139Z,43.90
2019-01-13T18:25:01.654Z,45.13
2019-01-13T18:28:09.354Z,46.93
2019-01-13T18:31:03.719Z,47.47
2019-01-13T18:34:09.668Z,48.37
2019-01-13T18:37:10.692Z,73.47
2019-01-13T18:40:15.556Z,66.17
2019-01-13T18:43:06.947Z,58.37
2019-01-13T18:46:11.662Z,57.63
2019-01-13T18:49:19.491Z,57.17
2019-01-13T18:52:07.664Z,83.70
2019-01-13T18:55:12.516Z,82.93
2019-01-13T18:58:04.721Z,76.57
2019-01-13T19:01:09.792Z,78.50
2019-01-13T19:03:57.998Z,61.43
2019-01-13T19:07:06.599Z,46.97
2019-01-13T19:09:54.598Z,38.03
2019-01-13T19:13:01.114Z,43.17
2019-01-13T19:15:49.386Z,56.70
2019-01-13T19:19:00.330Z,43.53
2019-01-13T19:21:49.701Z,51.57
2019-01-13T19:24:57.692Z,52.37
2019-01-13T19:27:46.008Z,60.87
2019-01-13T19:30:50.728Z,52.63
2019-01-13T19:34:01.433Z,52.97
2019-01-13T19:36:49.589Z,53.43
2019-01-13T19:39:54.311Z,95.13
2019-01-13T19:42:42.466Z,92.50
2019-01-13T19:45:50.202Z,97.13
2019-01-13T19:48:55.757Z,114.40
2019-01-13T19:52:00.568Z,124.20
2019-01-13T19:54:51.617Z,114.63
2019-01-13T19:58:03.266Z,114.80
2019-01-13T20:00:51.307Z,122.00
2019-01-13T20:03:59.315Z,126.57
2019-01-13T20:06:47.329Z,134.00
2019-01-13T20:09:52.063Z,125.50
2019-01-13T20:12:57.972Z,105.73
2019-01-13T20:15:47.290Z,106.77
2019-01-13T20:18:56.375Z,103.50
2019-01-13T20:21:44.301Z,56.60
2019-01-13T20:24:49.179Z,54.43
2019-01-13T20:27:37.146Z,44.27
2019-01-13T20:30:41.928Z,44.43
2019-01-13T20:33:48.121Z,30.87
2019-01-13T20:36:52.985Z,32.80
2019-01-13T20:39:43.181Z,27.13
2019-01-13T20:42:48.450Z,26.40
2019-01-13T20:45:37.958Z,26.60
2019-01-13T20:48:42.825Z,26.40
2019-01-13T20:51:30.572Z,29.17
2019-01-13T20:54:36.609Z,30.30
2019-01-13T20:57:24.567Z,28.97
2019-01-13T21:00:36.533Z,34.67
2019-01-13T21:03:24.523Z,34.70
2019-01-13T21:06:33.574Z,35.43
2019-01-13T21:09:21.400Z,30.10
2019-01-13T21:12:32.695Z,27.03
2019-01-13T21:15:20.701Z,19.80
2019-01-13T21:18:26.583Z,21.47
2019-01-13T21:21:14.800Z,19.77
2019-01-13T21:24:20.788Z,19.83
2019-01-13T21:27:08.636Z,20.50
2019-01-13T21:30:19.472Z,19.97
2019-01-13T21:33:07.434Z,20.20
2019-01-13T21:36:12.477Z,20.63
2019-01-13T21:39:00.997Z,20.67
2019-01-13T21:42:05.815Z,26.97
2019-01-13T21:44:53.589Z,34.03
2019-01-13T21:50:59.640Z,44.63
2019-01-13T21:54:10.930Z,40.83
2019-01-13T21:57:00.852Z,40.50
2019-01-13T22:00:09.908Z,40.50
2019-01-13T22:02:58.242Z,39.53
2019-01-13T22:06:03.567Z,41.73
2019-01-13T22:08:56.075Z,47.97
2019-01-13T22:12:00.723Z,44.70
2019-01-13T22:14:48.852Z,46.10
2019-01-13T22:17:56.734Z,42.77
2019-01-13T22:20:44.678Z,37.40
2019-01-13T22:23:50.892Z,30.70
2019-01-13T22:26:38.993Z,30.33
2019-01-13T22:29:43.694Z,33.97
2019-01-13T22:32:34.693Z,28.17
2019-01-13T22:35:58.185Z,28.73
2019-01-13T22:38:28.593Z,28.00
2019-01-13T22:41:05.710Z,28.23
2019-01-13T22:43:41.817Z,28.43
2019-01-13T22:46:18.817Z,29.30
2019-01-13T22:48:49.205Z,31.00
2019-01-13T22:51:26.811Z,33.17
2019-01-13T22:53:59.744Z,33.43
2019-01-13T22:56:35.548Z,33.37
2019-01-13T22:59:22.177Z,29.97
2019-01-13T23:02:18.142Z,31.43
2019-01-13T23:04:48.523Z,31.07
2019-01-13T23:07:25.153Z,32.27
2019-01-13T23:09:55.552Z,31.87
2019-01-13T23:15:29.521Z,32.80
2019-01-13T23:18:06.345Z,33.53
